Time;durP1;ratioP1;P1;durP2;ratioP2;P2;SDS_P1;SDS_P2;PMS_P1;PMS_P2;Temp;Humidity;BMP_temperature;BMP_pressure;BME280_temperature;BME280_humidity;BME280_pressure;Samples;Min_cycle;Max_cycle;Signal;HPM_P1;HPM_P2
2023/02/03 00:00:23;;;;;;;5.90;2.38;;;;;;;8.65;55.96;101807.03;5029372;27;101070;-70
2023/02/03 00:02:50;;;;;;;16.55;2.97;;;;;;;8.48;56.29;101798.41;5031702;27;101316;-69
2023/02/03 00:05:17;;;;;;;16.08;4.13;;;;;;;8.62;56.00;101800.03;5031582;27;97662;-70
2023/02/03 00:07:43;;;;;;;8.93;2.58;;;;;;;8.72;55.88;101796.41;5031847;28;96836;-70
2023/02/03 00:10:11;;;;;;;8.52;2.45;;;;;;;8.72;55.99;101785.00;5024711;28;101652;-68
2023/02/03 00:12:37;;;;;;;15.90;4.55;;;;;;;8.37;56.65;101780.09;5025159;28;98936;-70
2023/02/03 00:15:05;;;;;;;9.45;2.20;;;;;;;8.36;57.13;101767.81;5024217;28;97502;-69
2023/02/03 00:17:31;;;;;;;12.40;3.13;;;;;;;8.41;56.78;101766.00;5028582;27;96870;-70
2023/02/03 00:19:57;;;;;;;17.95;3.45;;;;;;;8.32;57.57;101766.97;5025390;28;100535;-69
2023/02/03 00:22:24;;;;;;;12.07;2.67;;;;;;;8.40;57.57;101754.59;5030432;28;98773;-70
2023/02/03 00:24:50;;;;;;;12.77;2.35;;;;;;;8.38;57.37;101748.47;5026220;28;99056;-68
2023/02/03 00:27:18;;;;;;;10.60;2.40;;;;;;;8.12;58.22;101734.69;5029813;28;96843;-69
2023/02/03 00:29:44;;;;;;;15.05;3.15;;;;;;;8.07;59.13;101733.84;5024441;28;99325;-69
2023/02/03 00:32:11;;;;;;;11.20;2.47;;;;;;;8.17;59.13;101729.34;5026535;28;101038;-70
2023/02/03 00:34:37;;;;;;;14.10;2.35;;;;;;;8.20;59.55;101716.19;5018410;27;97422;-69
2023/02/03 00:37:03;;;;;;;12.70;2.60;;;;;;;8.17;60.19;101714.44;5024268;27;97835;-68
2023/02/03 00:39:30;;;;;;;14.10;2.67;;;;;;;8.32;60.16;101713.44;5023792;27;99232;-69
2023/02/03 00:41:56;;;;;;;11.73;2.60;;;;;;;8.19;60.85;101703.91;5029985;27;99193;-69
2023/02/03 00:44:24;;;;;;;14.45;2.60;;;;;;;8.39;60.44;101689.66;5026835;27;98069;-69
2023/02/03 00:46:50;;;;;;;15.15;2.45;;;;;;;8.28;60.87;101680.94;5027284;27;98925;-68
2023/02/03 00:49:17;;;;;;;17.33;3.47;;;;;;;8.48;60.43;101679.88;5026367;27;100191;-69
2023/02/03 00:51:43;;;;;;;10.32;2.70;;;;;;;8.29;61.13;101687.97;5021564;27;100872;-68
2023/02/03 00:54:10;;;;;;;13.43;2.55;;;;;;;8.16;61.68;101690.75;5027746;27;97921;-68
2023/02/03 00:56:39;;;;;;;10.70;3.28;;;;;;;8.07;62.47;101686.47;5027870;28;97165;-68
2023/02/03 00:59:06;;;;;;;12.05;2.38;;;;;;;8.15;62.38;101687.25;5023847;28;99001;-68
2023/02/03 01:01:34;;;;;;;16.95;3.03;;;;;;;8.23;62.30;101682.78;5026570;28;98936;-68
2023/02/03 01:04:01;;;;;;;11.10;2.50;;;;;;;7.95;62.92;101678.69;5026000;28;96808;-69
2023/02/03 01:06:28;;;;;;;15.27;2.95;;;;;;;7.82;63.64;101672.66;5023797;27;96983;-68
2023/02/03 01:08:55;;;;;;;15.18;3.42;;;;;;;8.07;63.07;101660.16;5022532;28;99108;-68
2023/02/03 01:11:23;;;;;;;18.45;3.13;;;;;;;8.05;63.30;101663.66;5025021;28;99127;-70
2023/02/03 01:13:51;;;;;;;10.98;3.15;;;;;;;7.95;63.80;101660.25;5023374;28;97218;-69
2023/02/03 01:16:19;;;;;;;14.02;4.32;;;;;;;8.00;63.74;101655.84;5028532;28;96878;-68
2023/02/03 01:18:47;;;;;;;17.75;4.05;;;;;;;8.08;63.67;101659.22;5027311;27;98924;-68
2023/02/03 01:21:15;;;;;;;13.25;3.05;;;;;;;8.15;63.48;101646.88;5025420;28;99041;-68
2023/02/03 01:23:43;;;;;;;8.60;2.88;;;;;;;7.94;63.91;101648.00;5019158;28;97017;-67
2023/02/03 01:26:11;;;;;;;21.45;3.70;;;;;;;7.97;63.98;101637.44;5029903;28;96784;-70
2023/02/03 01:28:38;;;;;;;12.60;3.50;;;;;;;8.05;63.95;101635.59;5022889;28;99356;-70
2023/02/03 01:31:13;;;;;;;13.52;3.13;;;;;;;7.85;64.55;101633.19;5027353;28;99131;-68
2023/02/03 01:33:40;;;;;;;12.73;3.00;;;;;;;7.96;64.29;101618.13;5018788;28;97133;-70
2023/02/03 01:36:08;;;;;;;16.25;3.40;;;;;;;7.70;64.49;101606.13;5022539;28;96818;-68
2023/02/03 01:38:35;;;;;;;12.75;4.13;;;;;;;7.86;64.57;101611.25;5016723;28;98935;-69
2023/02/03 01:41:02;;;;;;;8.20;3.10;;;;;;;7.80;64.60;101603.41;5033179;28;99735;-69
2023/02/03 01:43:29;;;;;;;11.70;3.70;;;;;;;7.91;63.98;101600.66;5026922;28;96885;-69
2023/02/03 01:45:56;;;;;;;11.88;3.58;;;;;;;7.71;65.05;101598.22;5019980;28;97818;-69
2023/02/03 01:48:23;;;;;;;10.18;3.10;;;;;;;7.84;64.98;101580.56;5029868;28;98916;-68
2023/02/03 01:50:49;;;;;;;7.20;3.15;;;;;;;7.72;64.77;101573.69;5027297;28;98011;-69
2023/02/03 01:53:17;;;;;;;9.23;3.20;;;;;;;7.74;64.88;101561.38;5026832;28;97412;-68
2023/02/03 01:55:48;;;;;;;8.65;2.65;;;;;;;7.76;64.33;101558.72;5021670;27;98859;-70
2023/02/03 01:58:19;;;;;;;7.38;3.55;;;;;;;7.69;64.87;101552.66;5019492;27;99039;-70
2023/02/03 02:00:45;;;;;;;11.52;3.85;;;;;;;7.68;64.96;101555.31;5024617;27;98099;-70
2023/02/03 02:03:13;;;;;;;7.45;3.85;;;;;;;7.69;64.92;101546.50;5025868;28;97681;-70
2023/02/03 02:05:47;;;;;;;8.15;3.47;;;;;;;7.61;65.07;101547.47;5032679;28;97161;-70
2023/02/03 02:08:16;;;;;;;6.47;3.30;;;;;;;7.59;64.80;101549.25;5028733;28;99356;-69
2023/02/03 02:10:45;;;;;;;9.98;3.20;;;;;;;7.77;64.67;101528.88;5025583;28;98807;-67
2023/02/03 02:13:12;;;;;;;5.50;3.30;;;;;;;7.60;64.65;101529.97;5018151;28;96997;-70
2023/02/03 02:15:47;;;;;;;7.45;3.20;;;;;;;7.81;64.86;101512.19;5030960;27;97420;-69
2023/02/03 02:18:45;;;;;;;6.57;3.17;;;;;;;7.66;64.95;101496.59;5024382;28;97639;-70
2023/02/03 02:21:42;;;;;;;6.95;3.15;;;;;;;7.53;65.34;101496.72;5029943;27;98955;-69
2023/02/03 02:24:34;;;;;;;8.77;3.42;;;;;;;7.43;65.70;101487.19;5028596;28;97193;-68
2023/02/03 02:27:09;;;;;;;6.63;3.28;;;;;;;7.35;66.07;101478.50;5027148;27;97040;-68
2023/02/03 02:29:59;;;;;;;5.47;3.38;;;;;;;7.30;66.19;101472.41;5024886;27;99425;-68
2023/02/03 02:32:35;;;;;;;5.63;2.38;;;;;;;7.47;64.87;101457.34;5025220;27;99291;-69
2023/02/03 02:35:10;;;;;;;8.00;2.83;;;;;;;7.49;65.78;101450.28;5025446;27;97660;-67
2023/02/03 02:37:48;;;;;;;7.85;3.00;;;;;;;7.51;65.27;101438.00;5031499;27;97750;-69
2023/02/03 02:40:23;;;;;;;3.47;2.60;;;;;;;7.48;65.40;101429.31;5022396;27;99393;-68
2023/02/03 02:43:01;;;;;;;5.47;2.60;;;;;;;7.56;64.64;101420.41;5028535;27;98803;-69
2023/02/03 02:45:31;;;;;;;2.80;2.20;;;;;;;7.51;64.96;101406.44;5021997;28;97113;-68
2023/02/03 02:48:07;;;;;;;7.00;2.55;;;;;;;7.41;65.54;101402.22;5021822;27;97091;-69
2023/02/03 02:50:39;;;;;;;3.85;2.70;;;;;;;7.28;65.79;101407.63;5026356;27;98973;-68
2023/02/03 02:53:07;;;;;;;5.00;2.67;;;;;;;7.39;66.10;101398.72;5032712;27;99182;-67
2023/02/03 02:55:37;;;;;;;3.08;2.25;;;;;;;7.40;65.58;101391.69;5032460;27;96762;-68
2023/02/03 02:58:07;;;;;;;4.97;2.50;;;;;;;7.08;66.66;101384.19;5031841;27;97428;-68
2023/02/03 03:00:37;;;;;;;6.47;2.60;;;;;;;7.09;67.13;101370.13;5030576;27;101140;-68
2023/02/03 03:03:12;;;;;;;4.38;2.30;;;;;;;7.22;66.84;101368.28;5024724;27;98829;-68
2023/02/03 03:05:42;;;;;;;4.32;2.75;;;;;;;7.49;65.91;101366.16;5028382;28;98445;-68
2023/02/03 03:08:12;;;;;;;3.08;2.55;;;;;;;7.59;65.38;101367.78;5035002;27;98768;-69
2023/02/03 03:10:40;;;;;;;3.75;2.67;;;;;;;7.90;64.34;101356.81;5027427;27;99559;-69
2023/02/03 03:13:11;;;;;;;2.92;2.10;;;;;;;7.51;65.51;101353.84;5025263;27;99576;-68
2023/02/03 03:15:39;;;;;;;3.72;2.00;;;;;;;7.68;65.48;101356.25;5033659;27;99033;-68
2023/02/03 03:18:13;;;;;;;3.30;2.13;;;;;;;7.51;65.95;101338.06;5029750;27;96716;-69
2023/02/03 03:20:43;;;;;;;2.38;2.17;;;;;;;7.57;66.07;101327.47;5030169;27;99041;-69
2023/02/03 03:23:16;;;;;;;4.55;1.90;;;;;;;7.32;66.60;101314.69;5027246;27;98856;-69
2023/02/03 03:25:46;;;;;;;4.47;2.22;;;;;;;7.16;67.70;101319.25;5024874;27;98926;-68
2023/02/03 03:28:19;;;;;;;3.13;1.90;;;;;;;7.12;67.85;101309.69;5030058;27;96867;-68
2023/02/03 03:30:45;;;;;;;2.35;1.48;;;;;;;7.06;68.64;101297.47;5028793;27;99367;-69
2023/02/03 03:33:16;;;;;;;4.05;1.85;;;;;;;7.17;68.44;101299.97;5023415;27;96898;-68
2023/02/03 03:35:49;;;;;;;1.63;1.52;;;;;;;7.34;67.87;101294.50;5022219;27;97861;-68
2023/02/03 03:38:23;;;;;;;3.28;1.80;;;;;;;7.27;68.24;101283.19;5028086;27;96959;-69
2023/02/03 03:40:55;;;;;;;1.83;1.60;;;;;;;7.53;67.38;101275.81;5024741;28;99343;-69
2023/02/03 03:43:26;;;;;;;1.85;1.33;;;;;;;7.70;66.83;101279.94;5023686;27;98834;-68
2023/02/03 03:45:55;;;;;;;1.63;1.27;;;;;;;7.51;67.21;101277.59;5027570;27;99225;-68
2023/02/03 03:48:27;;;;;;;3.55;1.30;;;;;;;7.32;68.06;101272.63;5035515;27;99105;-68
2023/02/03 03:50:59;;;;;;;1.25;1.15;;;;;;;7.63;67.45;101268.63;5029870;27;98927;-68
2023/02/03 03:53:30;;;;;;;1.70;1.13;;;;;;;7.67;67.52;101274.75;5023489;27;99010;-68
2023/02/03 03:56:00;;;;;;;2.22;1.20;;;;;;;7.74;67.45;101279.03;5030359;27;97568;-68
2023/02/03 03:58:29;;;;;;;1.00;0.90;;;;;;;7.75;67.04;101259.69;5025088;27;98439;-68
2023/02/03 04:00:59;;;;;;;1.65;1.10;;;;;;;7.67;67.14;101251.06;5026475;27;99161;-68
2023/02/03 04:03:32;;;;;;;1.13;1.02;;;;;;;7.55;68.26;101263.50;5026783;28;102743;-69
2023/02/03 04:05:59;;;;;;;1.52;1.17;;;;;;;7.61;68.45;101265.19;5021297;28;97160;-68
2023/02/03 04:08:25;;;;;;;1.00;0.90;;;;;;;7.67;68.09;101249.31;5026097;28;98712;-68
2023/02/03 04:10:52;;;;;;;0.95;0.95;;;;;;;7.84;67.75;101246.41;5024423;28;100643;-69
2023/02/03 04:13:19;;;;;;;1.75;1.33;;;;;;;8.00;67.44;101234.75;5017687;28;99042;-67
2023/02/03 04:15:46;;;;;;;2.72;1.20;;;;;;;7.85;67.70;101233.22;5026003;28;96808;-69
2023/02/03 04:18:14;;;;;;;1.85;1.52;;;;;;;8.31;66.34;101228.06;5022482;28;97911;-69
2023/02/03 04:20:42;;;;;;;1.27;1.17;;;;;;;8.06;67.10;101226.72;5025018;28;98276;-68
2023/02/03 04:23:09;;;;;;;1.20;1.10;;;;;;;8.17;67.12;101208.97;5012808;27;99159;-67
2023/02/03 04:25:36;;;;;;;1.83;1.45;;;;;;;8.13;67.18;101196.78;5022935;27;97033;-68
2023/02/03 04:28:04;;;;;;;8.02;2.58;;;;;;;8.43;66.48;101202.38;5029343;27;97995;-69
2023/02/03 04:30:31;;;;;;;2.38;2.17;;;;;;;8.48;66.30;101190.84;5033752;27;99163;-68
2023/02/03 04:32:58;;;;;;;2.15;1.95;;;;;;;8.55;65.85;101189.84;5028504;27;99434;-67
2023/02/03 04:35:24;;;;;;;2.55;2.35;;;;;;;8.58;65.99;101181.88;5028362;27;97823;-69
2023/02/03 04:37:51;;;;;;;2.60;2.40;;;;;;;8.71;65.74;101183.38;5025993;27;97612;-69
2023/02/03 04:40:21;;;;;;;4.03;2.40;;;;;;;8.60;66.37;101171.31;5027747;27;98888;-67
2023/02/03 04:42:47;;;;;;;3.38;3.08;;;;;;;8.54;67.09;101156.47;5026179;27;100565;-67
2023/02/03 04:45:14;;;;;;;3.65;3.28;;;;;;;8.43;67.17;101157.59;5033383;27;97288;-68
2023/02/03 04:47:40;;;;;;;4.28;3.85;;;;;;;8.42;68.44;101162.00;5028756;27;96893;-68
2023/02/03 04:50:07;;;;;;;4.53;4.07;;;;;;;8.55;67.79;101152.94;5025918;27;98882;-69
2023/02/03 04:52:34;;;;;;;4.70;4.30;;;;;;;8.66;67.87;101135.16;5030124;27;99882;-68
2023/02/03 04:55:02;;;;;;;5.95;4.60;;;;;;;8.63;68.36;101134.34;5018722;27;97990;-68
2023/02/03 04:57:29;;;;;;;6.70;5.43;;;;;;;8.53;69.19;101123.16;5030770;27;97134;-69
2023/02/03 04:59:55;;;;;;;8.10;5.85;;;;;;;8.69;69.37;101121.06;5025622;27;98805;-69
2023/02/03 05:02:21;;;;;;;7.40;5.90;;;;;;;8.73;69.21;101120.94;5028314;27;99383;-70
2023/02/03 05:04:48;;;;;;;8.18;6.40;;;;;;;8.81;69.43;101118.13;5027119;27;96794;-69
2023/02/03 05:07:14;;;;;;;7.88;6.72;;;;;;;8.91;69.98;101117.06;5031335;27;97022;-69
2023/02/03 05:09:40;;;;;;;10.63;7.90;;;;;;;8.89;70.13;101115.34;5021924;27;98911;-69
2023/02/03 05:12:08;;;;;;;10.00;7.95;;;;;;;8.89;70.52;101110.94;5025705;27;99245;-69
2023/02/03 05:14:34;;;;;;;11.43;8.18;;;;;;;8.96;71.12;101096.72;5024933;27;97966;-69
2023/02/03 05:17:01;;;;;;;16.35;9.77;;;;;;;8.91;71.77;101101.25;5020908;27;98163;-69
2023/02/03 05:19:27;;;;;;;14.15;10.02;;;;;;;8.91;72.58;101085.44;5028462;27;98973;-69
2023/02/03 05:21:53;;;;;;;20.92;11.15;;;;;;;9.22;71.53;101097.88;5023693;27;99155;-70
2023/02/03 05:24:20;;;;;;;19.63;12.00;;;;;;;9.44;71.17;101093.81;5030546;27;98422;-69
2023/02/03 05:26:46;;;;;;;16.70;11.70;;;;;;;9.36;71.69;101085.22;5025661;27;96733;-71
2023/02/03 05:29:14;;;;;;;22.17;12.75;;;;;;;9.41;72.34;101075.41;5031697;27;99149;-68
2023/02/03 05:31:40;;;;;;;24.83;13.73;;;;;;;9.64;71.82;101074.81;5028442;27;98813;-70
2023/02/03 05:34:07;;;;;;;23.10;13.15;;;;;;;9.67;71.96;101077.38;5024681;27;96886;-69
2023/02/03 05:36:33;;;;;;;28.20;14.70;;;;;;;9.70;72.04;101070.25;5025650;27;97059;-69
2023/02/03 05:39:00;;;;;;;26.35;15.80;;;;;;;9.68;72.90;101055.34;5025818;28;98903;-71
2023/02/03 05:44:10;;;;;;;26.35;16.40;;;;;;;9.49;74.41;101054.97;5016081;27;97126;-71
2023/02/03 05:46:37;;;;;;;27.67;16.98;;;;;;;9.46;74.92;101050.63;5027509;27;96893;-71
2023/02/03 05:49:04;;;;;;;27.42;16.90;;;;;;;9.66;74.57;101041.31;5023183;27;97842;-70
2023/02/03 05:51:30;;;;;;;27.85;16.48;;;;;;;9.72;74.20;101027.97;5024638;27;98722;-71
2023/02/03 05:53:56;;;;;;;29.67;16.70;;;;;;;9.89;73.74;101029.25;5017429;27;98495;-72
2023/02/03 05:56:23;;;;;;;23.45;15.85;;;;;;;9.89;74.03;101023.97;5024055;27;96894;-69
2023/02/03 05:58:52;;;;;;;30.45;16.58;;;;;;;9.81;73.95;101022.44;5025207;27;98886;-70
2023/02/03 06:01:19;;;;;;;26.52;17.15;;;;;;;9.78;75.09;101019.91;5025423;27;99092;-69
2023/02/03 06:03:47;;;;;;;30.45;17.05;;;;;;;9.82;75.03;101017.13;5021937;28;97606;-69
2023/02/03 06:06:13;;;;;;;26.75;15.32;;;;;;;10.05;74.66;101002.38;5024532;28;96755;-69
2023/02/03 06:08:40;;;;;;;30.33;16.95;;;;;;;10.07;74.46;100995.28;5017673;28;99146;-70
2023/02/03 06:11:06;;;;;;;30.10;16.98;;;;;;;10.09;74.44;100982.94;5028039;28;99095;-68
2023/02/03 06:13:32;;;;;;;26.67;16.20;;;;;;;10.15;74.06;100985.38;5023606;28;96893;-68
2023/02/03 06:15:59;;;;;;;28.42;17.38;;;;;;;10.04;75.00;100976.94;5024353;27;96927;-68
2023/02/03 06:18:25;;;;;;;33.28;17.65;;;;;;;10.06;75.33;100975.06;5024271;28;99108;-68
2023/02/03 06:20:53;;;;;;;29.85;18.13;;;;;;;10.21;74.85;100974.66;5028921;28;98814;-68
2023/02/03 06:23:20;;;;;;;25.70;16.67;;;;;;;10.23;74.85;100965.78;5027375;28;97165;-68
2023/02/03 06:25:51;;;;;;;32.38;17.55;;;;;;;10.17;74.65;100963.34;5021004;27;97098;-69
2023/02/03 06:28:18;;;;;;;29.25;16.65;;;;;;;10.12;74.96;100969.63;5025366;27;99467;-67
2023/02/03 06:30:44;;;;;;;27.92;16.73;;;;;;;10.08;75.72;100983.84;5027501;27;99729;-70
2023/02/03 06:33:11;;;;;;;25.17;16.40;;;;;;;10.26;75.24;100967.47;5024433;27;98681;-68
2023/02/03 06:35:37;;;;;;;32.90;17.40;;;;;;;10.10;75.95;100974.09;5027236;27;99095;-68
2023/02/03 06:38:05;;;;;;;30.15;16.42;;;;;;;10.12;76.43;100967.84;5026993;27;99148;-70
2023/02/03 06:40:31;;;;;;;29.67;16.17;;;;;;;10.22;75.83;100971.97;5026096;27;102186;-70
2023/02/03 06:42:57;;;;;;;28.63;17.40;;;;;;;10.33;75.49;100974.28;5033608;27;96880;-71
2023/02/03 06:45:24;;;;;;;29.33;16.92;;;;;;;10.13;76.27;100964.28;5029223;27;97493;-70
2023/02/03 06:47:51;;;;;;;30.92;16.50;;;;;;;10.21;75.77;100961.47;5032804;27;99229;-69
2023/02/03 06:50:17;;;;;;;30.40;16.65;;;;;;;10.22;75.99;100947.34;5025223;27;102089;-71
2023/02/03 06:52:44;;;;;;;29.65;17.17;;;;;;;10.09;76.88;100944.19;5030018;27;99055;-70
2023/02/03 06:55:12;;;;;;;26.67;15.43;;;;;;;10.33;76.07;100935.53;5031457;27;97471;-70
2023/02/03 06:57:43;;;;;;;30.58;16.38;;;;;;;10.59;74.82;100937.34;5021571;27;100161;-70
2023/02/03 07:00:12;;;;;;;26.33;15.90;;;;;;;10.59;74.72;100937.34;5027512;27;99049;-70
2023/02/03 07:02:38;;;;;;;26.40;15.43;;;;;;;10.25;76.26;100926.97;5031211;28;96859;-70
2023/02/03 07:05:05;;;;;;;28.13;15.48;;;;;;;10.48;75.93;100914.81;5025881;28;97003;-70
2023/02/03 07:07:32;;;;;;;25.58;14.05;;;;;;;10.28;75.93;100913.69;5024263;27;99619;-68
2023/02/03 07:09:59;;;;;;;20.80;14.93;;;;;;;10.41;75.75;100910.66;5018274;27;98503;-69
2023/02/03 07:12:27;;;;;;;25.98;14.93;;;;;;;10.57;75.28;100899.53;5022052;27;98481;-68
2023/02/03 07:14:53;;;;;;;21.15;14.68;;;;;;;10.65;75.15;100894.00;5025279;27;99932;-69
2023/02/03 07:17:20;;;;;;;25.27;14.98;;;;;;;10.38;76.19;100887.81;5022777;27;100434;-68
2023/02/03 07:19:46;;;;;;;23.73;15.07;;;;;;;10.61;75.78;100882.66;5021938;27;98661;-68
2023/02/03 07:22:16;;;;;;;27.38;14.88;;;;;;;10.64;75.24;100886.97;5020233;28;96904;-67
2023/02/03 07:24:43;;;;;;;23.70;13.23;;;;;;;10.40;76.58;100875.44;5022475;28;97309;-70
2023/02/03 07:27:09;;;;;;;21.27;14.00;;;;;;;10.29;77.09;100867.00;5021957;28;98889;-68
2023/02/03 07:29:37;;;;;;;20.45;14.25;;;;;;;10.30;77.08;100869.63;5021055;27;100826;-68
2023/02/03 07:32:04;;;;;;;19.45;13.13;;;;;;;10.19;77.93;100857.66;5027314;27;97354;-69
2023/02/03 07:34:30;;;;;;;28.92;13.73;;;;;;;10.43;77.29;100854.22;5023569;27;99263;-68
2023/02/03 07:36:57;;;;;;;19.90;12.82;;;;;;;10.38;76.67;100840.28;5033456;27;99681;-68
2023/02/03 07:39:24;;;;;;;21.60;12.65;;;;;;;10.43;77.09;100841.03;5026684;27;98921;-68
2023/02/03 07:41:50;;;;;;;17.13;11.82;;;;;;;10.16;78.08;100833.97;5028340;27;98513;-68
2023/02/03 07:44:17;;;;;;;17.83;11.57;;;;;;;10.26;78.02;100840.69;5026872;27;97082;-71
2023/02/03 07:46:44;;;;;;;23.88;11.95;;;;;;;10.43;77.84;100841.03;5025647;27;99068;-69
2023/02/03 07:49:11;;;;;;;17.38;11.20;;;;;;;10.53;77.04;100828.34;5024341;27;98563;-69
2023/02/03 07:51:37;;;;;;;21.55;11.35;;;;;;;10.41;77.48;100820.84;5029524;27;98347;-68
2023/02/03 07:54:04;;;;;;;16.98;11.07;;;;;;;10.54;76.97;100816.88;5019282;27;97794;-68
2023/02/03 07:56:31;;;;;;;20.52;11.20;;;;;;;10.46;76.97;100809.19;5024091;27;98873;-69
2023/02/03 07:58:58;;;;;;;15.00;10.23;;;;;;;10.63;76.75;100811.28;5029695;27;99792;-69
2023/02/03 08:01:24;;;;;;;11.98;9.18;;;;;;;10.43;77.34;100813.72;5026033;27;97645;-68
2023/02/03 08:03:52;;;;;;;17.33;10.50;;;;;;;10.38;78.01;100805.94;5022075;28;97261;-68
2023/02/03 08:06:19;;;;;;;18.27;9.98;;;;;;;10.42;77.75;100804.94;5021517;28;98840;-70
2023/02/03 08:08:45;;;;;;;14.57;9.57;;;;;;;10.47;77.40;100791.56;5017944;27;100467;-69
2023/02/03 08:11:11;;;;;;;14.55;9.55;;;;;;;10.52;77.36;100782.56;5023076;28;98720;-69
2023/02/03 08:13:38;;;;;;;11.23;8.05;;;;;;;10.48;77.44;100786.25;5030539;28;96816;-68
2023/02/03 08:16:06;;;;;;;15.70;8.60;;;;;;;10.69;76.72;100769.66;5028995;28;98810;-68
2023/02/03 08:18:32;;;;;;;16.88;8.80;;;;;;;10.24;78.50;100763.31;5022463;28;99479;-69
2023/02/03 08:21:06;;;;;;;16.23;8.88;;;;;;;10.54;77.73;100761.38;5023673;27;97301;-72
2023/02/03 08:23:32;;;;;;;13.05;7.88;;;;;;;10.62;77.41;100759.34;5023039;27;98601;-70
2023/02/03 08:25:59;;;;;;;12.82;7.25;;;;;;;10.50;77.61;100767.69;5024098;27;99338;-71
2023/02/03 08:28:25;;;;;;;12.10;7.65;;;;;;;10.76;76.70;100757.91;5031007;27;98141;-71
2023/02/03 08:30:51;;;;;;;9.77;7.30;;;;;;;10.67;77.45;100766.19;5024909;27;97226;-70
2023/02/03 08:33:18;;;;;;;12.05;7.15;;;;;;;10.68;76.88;100754.69;5020663;27;98473;-72
2023/02/03 08:35:46;;;;;;;8.68;6.43;;;;;;;10.57;77.63;100756.84;5022215;27;98941;-70
2023/02/03 08:38:14;;;;;;;10.32;6.20;;;;;;;10.43;78.31;100742.41;5020476;27;98699;-69
2023/02/03 08:40:40;;;;;;;9.50;7.18;;;;;;;10.58;77.85;100755.06;5024871;27;97130;-70
2023/02/03 08:43:07;;;;;;;10.73;6.72;;;;;;;10.47;78.35;100746.66;5028905;27;98658;-71
2023/02/03 08:45:33;;;;;;;10.77;6.43;;;;;;;10.38;78.41;100732.84;5020690;27;101206;-70
2023/02/03 08:48:00;;;;;;;9.13;6.43;;;;;;;10.37;78.91;100730.28;5029389;28;99172;-70
2023/02/03 08:50:26;;;;;;;9.95;6.13;;;;;;;10.65;77.80;100730.16;5021925;27;97560;-70
2023/02/03 08:52:53;;;;;;;9.25;6.10;;;;;;;10.57;77.91;100709.28;5028920;27;99063;-70
2023/02/03 08:55:20;;;;;;;9.60;6.50;;;;;;;10.56;78.51;100725.22;5026124;27;99420;-70
2023/02/03 08:57:47;;;;;;;8.07;6.10;;;;;;;10.59;78.57;100718.03;5019380;27;101469;-71
2023/02/03 09:00:14;;;;;;;10.48;5.80;;;;;;;10.65;78.16;100704.59;5025020;27;97344;-70
2023/02/03 09:02:40;;;;;;;10.98;5.93;;;;;;;10.41;79.73;100708.13;5019221;27;96967;-70
2023/02/03 09:05:07;;;;;;;12.90;7.53;;;;;;;10.62;79.04;100699.44;5018979;27;99402;-69
2023/02/03 09:07:38;;;;;;;9.60;5.50;;;;;;;10.58;78.95;100703.09;5024438;27;98911;-69
2023/02/03 09:10:05;;;;;;;10.73;5.72;;;;;;;10.46;79.59;100698.25;5019414;28;97612;-69
2023/02/03 09:12:32;;;;;;;11.65;5.50;;;;;;;10.09;80.89;100703.06;5022588;27;98296;-71
2023/02/03 09:14:59;;;;;;;7.20;5.32;;;;;;;10.39;80.26;100699.38;5021955;27;101029;-69
2023/02/03 09:17:25;;;;;;;6.50;4.97;;;;;;;10.47;79.61;100683.25;5020966;27;99526;-69
2023/02/03 09:19:51;;;;;;;5.68;4.80;;;;;;;10.36;79.91;100681.88;5021350;27;97465;-69
2023/02/03 09:22:18;;;;;;;7.72;5.35;;;;;;;10.64;79.30;100680.84;5026740;27;97806;-70
2023/02/03 09:24:44;;;;;;;7.82;4.70;;;;;;;10.71;78.11;100663.84;5019469;27;101430;-69
2023/02/03 09:27:11;;;;;;;7.28;5.30;;;;;;;10.78;78.50;100673.28;5020772;27;100374;-69
2023/02/03 09:29:39;;;;;;;6.15;4.30;;;;;;;10.52;79.09;100674.25;5022042;27;99403;-69
2023/02/03 09:32:09;;;;;;;7.45;4.75;;;;;;;10.43;80.08;100679.88;5021214;27;97122;-69
2023/02/03 09:34:35;;;;;;;9.45;4.10;;;;;;;10.40;80.11;100672.03;5024371;27;99403;-70
2023/02/03 09:37:03;;;;;;;4.40;3.80;;;;;;;10.59;80.01;100665.19;5023877;27;98971;-70
2023/02/03 09:39:29;;;;;;;7.38;4.10;;;;;;;10.78;79.55;100652.13;5020979;27;97278;-71
2023/02/03 09:42:09;;;;;;;4.35;3.53;;;;;;;10.42;80.21;100654.38;5027513;27;96816;-70
2023/02/03 09:44:47;;;;;;;5.03;3.55;;;;;;;10.09;82.13;100647.63;5018792;27;100079;-70
2023/02/03 09:47:18;;;;;;;4.93;3.40;;;;;;;10.40;81.78;100648.28;5021914;27;98797;-72
2023/02/03 09:49:49;;;;;;;4.97;4.25;;;;;;;10.51;81.17;100643.44;5019009;27;97395;-72
2023/02/03 09:52:19;;;;;;;5.95;3.85;;;;;;;10.81;80.03;100635.31;5023484;27;98346;-71
2023/02/03 09:54:52;;;;;;;5.55;3.63;;;;;;;10.53;80.90;100636.34;5025878;27;99492;-70
2023/02/03 09:57:22;;;;;;;8.45;3.30;;;;;;;10.37;81.48;100630.75;5030468;27;99167;-70
2023/02/03 09:59:50;;;;;;;4.88;3.08;;;;;;;10.55;80.71;100631.88;5030014;27;97090;-72
2023/02/03 10:02:38;;;;;;;5.18;3.13;;;;;;;10.35;80.67;100615.88;5024792;27;97439;-69
2023/02/03 10:05:14;;;;;;;9.65;3.28;;;;;;;10.60;80.23;100607.91;5022474;27;98876;-70
2023/02/03 10:07:51;;;;;;;9.27;3.22;;;;;;;10.72;80.23;100596.88;5026347;27;98869;-70
2023/02/03 10:10:25;;;;;;;7.80;3.47;;;;;;;10.99;79.53;100579.94;5027616;27;96795;-69
2023/02/03 10:13:07;;;;;;;3.72;3.13;;;;;;;11.01;78.90;100571.94;5021732;27;96922;-70
2023/02/03 10:15:49;;;;;;;4.80;3.20;;;;;;;11.02;79.06;100571.91;5027341;27;99552;-69
2023/02/03 10:18:20;;;;;;;5.90;2.75;;;;;;;11.09;77.65;100565.41;5031340;27;99262;-71
2023/02/03 10:20:55;;;;;;;3.67;2.85;;;;;;;11.05;78.56;100568.25;5017943;27;96887;-71
2023/02/03 10:23:26;;;;;;;3.13;2.50;;;;;;;11.09;77.99;100562.75;5024955;27;98138;-69
2023/02/03 10:25:55;;;;;;;5.30;2.22;;;;;;;10.90;78.26;100567.06;5027412;28;99507;-70
2023/02/03 10:28:24;;;;;;;7.38;2.83;;;;;;;11.11;78.33;100571.50;5018985;27;98907;-69
2023/02/03 10:30:56;;;;;;;4.38;2.35;;;;;;;11.26;77.29;100574.47;5023427;27;96802;-69
2023/02/03 10:33:26;;;;;;;4.70;2.17;;;;;;;10.93;78.90;100566.09;5024881;27;97391;-70
2023/02/03 10:35:55;;;;;;;4.72;2.38;;;;;;;10.91;78.48;100575.88;5022995;27;98258;-71
2023/02/03 10:38:33;;;;;;;5.65;2.50;;;;;;;10.83;79.49;100577.97;5025294;27;100896;-69
2023/02/03 10:41:01;;;;;;;3.53;1.90;;;;;;;10.74;79.38;100595.91;5025118;27;97852;-70
2023/02/03 10:43:51;;;;;;;4.28;2.20;;;;;;;10.73;80.77;100620.59;5028180;28;98749;-71
2023/02/03 10:46:21;;;;;;;1.83;1.42;;;;;;;10.69;80.22;100648.06;5020676;27;99218;-69
2023/02/03 10:48:49;;;;;;;1.63;1.00;;;;;;;10.76;78.87;100702.41;5029091;27;98690;-69
2023/02/03 10:51:20;;;;;;;4.80;0.88;;;;;;;10.61;75.09;100617.56;5030807;27;97447;-69
2023/02/03 10:53:47;;;;;;;4.20;0.65;;;;;;;10.11;74.94;100643.16;5024330;27;97051;-69
2023/02/03 10:56:16;;;;;;;3.85;0.80;;;;;;;10.54;74.23;100671.56;5025616;27;98896;-70
2023/02/03 10:58:48;;;;;;;5.63;0.88;;;;;;;11.07;71.52;100654.53;5030058;27;98947;-69
2023/02/03 11:01:17;;;;;;;5.38;0.88;;;;;;;11.02;71.35;100648.56;5024290;27;97861;-71
2023/02/03 11:03:53;;;;;;;5.05;1.30;;;;;;;11.38;69.72;100648.88;5018222;27;97057;-68
2023/02/03 11:06:20;;;;;;;8.40;1.42;;;;;;;11.28;69.02;100639.63;5021746;28;101115;-71
2023/02/03 11:08:49;;;;;;;10.65;2.38;;;;;;;11.65;66.50;100646.03;5030141;27;99017;-70
2023/02/03 11:11:23;;;;;;;8.60;1.30;;;;;;;11.79;64.97;100660.47;5020630;27;97563;-69
2023/02/03 11:13:53;;;;;;;11.40;1.50;;;;;;;11.36;64.02;100657.78;5027107;27;97412;-70
2023/02/03 11:16:23;;;;;;;11.80;1.95;;;;;;;11.12;64.25;100641.13;5023548;27;98559;-70
2023/02/03 11:18:57;;;;;;;6.55;1.00;;;;;;;11.46;64.28;100641.50;5028301;28;97554;-70
2023/02/03 11:21:27;;;;;;;10.70;1.13;;;;;;;11.04;63.60;100633.50;5025197;27;97489;-69
2023/02/03 11:24:00;;;;;;;14.55;2.03;;;;;;;11.00;64.60;100636.31;5028577;27;97522;-69
2023/02/03 11:26:29;;;;;;;13.88;2.00;;;;;;;10.66;65.20;100632.31;5026908;27;99865;-71
2023/02/03 11:28:59;;;;;;;14.85;2.22;;;;;;;10.66;65.11;100613.81;5025624;28;99342;-68
2023/02/03 11:31:27;;;;;;;14.43;2.05;;;;;;;10.78;64.94;100636.28;5024331;27;97224;-71